• Join FlightAware (Why Join?)
  • Login
  • US Flag 
05:17AM EST


 

Airport Tracker/Info


-or-


 

Live Flight TrackerFlight Track Log ✈ GTX256 ✈ 19-Jun-2014 ✈ KSAT - KADS

Flight Track Log - Related Links

Times and Time Zones

All times are in EDT time to prevent confusion due to time zone crossing. See the GTX256 flight status page for this flight to view local times or setup timezone preferences in your user account.

Time Position Orientation Groundspeed Altitude Reporting Facility
EDT Latitude Longitude Course Direction KTS MPH feet Rate Location/Type
08:45PM 29.5219 -98.4783 297° West 122 140 1,200  Level Houston Center
08:46PM 29.5300 -98.4967 297° West 132 152 1,700 1,020 Climbing Houston Center
08:47PM 29.5486 -98.5064 336° Northwest 127 146 2,400 900 Climbing Houston Center
08:47PM 29.5708 -98.5086 355° North 115 132 2,900 720 Climbing Houston Center
08:48PM 29.5811 -98.5086 360° North 119 137 3,200 840 Climbing Houston Center
08:48PM 29.5942 -98.5106 353° North 116 133 3,500 720 Climbing Houston Center
08:49PM 29.6147 -98.5108 359° North 119 137 4,000 660 Climbing Houston Center
08:49PM 29.6303 -98.5136 351° North 126 145 4,300 720 Climbing Houston Center
08:50PM 29.6528 -98.5125 North 123 142 4,800 600 Climbing Houston Center
08:50PM 29.6614 -98.5122 North 123 142 4,900 660 Climbing Houston Center
08:51PM 29.6867 -98.5131 358° North 123 142 5,500 540 Climbing Houston Center
08:51PM 29.6972 -98.5125 North 123 142 5,500 60 Level Houston Center
08:52PM 29.7256 -98.5128 360° North 138 159 5,600  Climbing Houston Center
08:52PM 29.7392 -98.5100 10° North 161 185 5,500  Descending Houston Center
08:53PM 29.7739 -98.4981 17° North 161 185 5,600 -120 Climbing Houston Center
08:53PM 29.7900 -98.4919 18° North 172 198 5,400 -120 Descending Houston Center
08:54PM 29.8175 -98.4778 24° Northeast 167 192 5,500 120 Climbing Houston Center
08:54PM 29.8336 -98.4650 35° Northeast 163 188 5,600  Climbing Houston Center
08:55PM 29.8575 -98.4461 34° Northeast 165 190 5,500 -120 Descending Houston Center
08:56PM 29.8958 -98.4181 32° Northeast 165 190 5,500  Level Houston Center
08:57PM 29.9394 -98.3908 28° Northeast 165 190 5,500  Level Houston Center
08:58PM 29.9781 -98.3633 32° Northeast 165 190 5,600  Climbing Houston Center
08:59PM 30.0144 -98.3342 35° Northeast 163 188 5,500 -60 Descending Houston Center
09:00PM 30.0572 -98.3044 31° Northeast 163 188 5,500  Level Houston Center
09:01PM 30.0983 -98.2797 27° Northeast 164 189 5,500  Level Houston Center
09:02PM 30.1386 -98.2472 35° Northeast 164 189 5,600  Climbing Houston Center
09:03PM 30.1775 -98.2183 33° Northeast 164 189 5,600  Level Houston Center
09:04PM 30.2189 -98.1939 27° Northeast 165 190 5,600 -60 Level Houston Center
09:05PM 30.2611 -98.1653 30° Northeast 165 190 5,500 -60 Descending Houston Center
09:06PM 30.2994 -98.1344 35° Northeast 165 190 5,500  Level Houston Center
09:07PM 30.3400 -98.1064 31° Northeast 165 190 5,600  Climbing Houston Center
09:08PM 30.3797 -98.0803 30° Northeast 165 190 5,500 -60 Descending Houston Center
09:09PM 30.4194 -98.0508 33° Northeast 166 191 5,500  Level Houston Center
09:10PM 30.4569 -98.0228 33° Northeast 165 190 5,600  Climbing Houston Center
09:11PM 30.4967 -97.9967 30° Northeast 165 190 5,600 -60 Level Houston Center
09:12PM 30.5372 -97.9675 32° Northeast 169 194 5,500 -60 Descending Houston Center
09:13PM 30.5822 -97.9325 34° Northeast 166 191 5,500  Level Houston Center
09:14PM 30.6228 -97.9072 28° Northeast 166 191 5,500  Level Houston Center
09:16PM 30.6622 -97.8806 30° Northeast 166 191 5,600  Climbing Houston Center
09:17PM 30.7006 -97.8492 35° Northeast 166 191 5,500 -60 Descending Houston Center
09:18PM 30.7400 -97.8222 30° Northeast 166 191 5,500  Level Houston Center
09:19PM 30.7808 -97.7961 29° Northeast 166 191 5,500  Level Houston Center
09:20PM 30.8192 -97.7656 34° Northeast 166 191 5,600  Climbing Houston Center
09:21PM 30.8583 -97.7358 33° Northeast 166 191 5,600 -60 Level Houston Center
09:22PM 30.8983 -97.7092 30° Northeast 168 193 5,500 -60 Descending Fort Worth Center
09:23PM 30.9392 -97.6803 31° Northeast 168 193 5,500  Level Fort Worth Center
09:24PM 30.9817 -97.6489 32° Northeast 161 185 5,600  Climbing Fort Worth Center
09:25PM 31.0206 -97.6228 30° Northeast 164 189 5,600 -60 Level Fort Worth Center
09:26PM 31.0581 -97.5847 41° Northeast 167 192 5,500  Descending Fort Worth Center
09:27PM 31.0897 -97.5500 43° Northeast 167 192 5,600  Climbing Fort Worth Center
09:28PM 31.1325 -97.5203 31° Northeast 166 191 5,600 -60 Level Fort Worth Center
09:29PM 31.1803 -97.5075 13° North 172 198 5,500 -60 Descending Fort Worth Center
09:30PM 31.2261 -97.4931 15° North 173 199 5,500  Level Fort Worth Center
09:31PM 31.2750 -97.4792 14° North 173 199 5,500  Level Fort Worth Center
09:32PM 31.3211 -97.4647 15° North 173 199 5,500 60 Level Fort Worth Center
09:32PM 31.3392 -97.4581 18° North 175 201 5,600  Climbing Fort Worth Center
09:33PM 31.3772 -97.4475 13° North 173 199 5,500 -60 Descending Fort Worth Center
09:34PM 31.4253 -97.4336 14° North 173 199 5,500  Level Fort Worth Center
09:35PM 31.4714 -97.4192 15° North 173 199 5,500  Level Fort Worth Center
09:36PM 31.5172 -97.4042 16° North 172 198 5,600 60 Climbing Fort Worth Center
09:37PM 31.5608 -97.3839 22° Northeast 171 197 5,700  Climbing Fort Worth Center
09:38PM 31.6078 -97.3639 20° North 174 200 5,600 -60 Descending Fort Worth Center
09:39PM 31.6558 -97.3483 15° North 176 203 5,600 -60 Level Fort Worth Center
09:40PM 31.6967 -97.3364 14° North 177 204 5,500 -120 Descending Fort Worth Center
09:40PM 31.7128 -97.3289 22° Northeast 176 203 5,500  Level Fort Worth Center
09:41PM 31.7583 -97.3086 21° North 176 203 5,500  Level Fort Worth Center
09:42PM 31.8047 -97.2894 19° North 176 203 5,600  Climbing Fort Worth Center
09:43PM 31.8525 -97.2767 13° North 176 203 5,600 -120 Level Fort Worth Center
09:44PM 31.8828 -97.2631 21° North 182 209 5,500 -240 Descending Fort Worth Center
09:44PM 31.9000 -97.2556 20° North 178 205 5,400 -360 Descending Fort Worth Center
09:45PM 31.9481 -97.2303 24° Northeast 185 213 5,000 -420 Descending Fort Worth Center
09:46PM 32.0089 -97.2128 14° North 193 222 4,600 -420 Descending Fort Worth Center
09:47PM 32.0597 -97.1942 17° North 192 221 4,200 -420 Descending Fort Worth Center
09:48PM 32.0844 -97.1822 22° Northeast 192 221 4,000 -300 Descending Fort Worth Center
09:48PM 32.1061 -97.1714 23° Northeast 191 220 3,900 -360 Descending Fort Worth Center
09:49PM 32.1581 -97.1517 18° North 192 221 3,500 -240 Descending Fort Worth Center
09:50PM 32.2083 -97.1381 13° North 189 217 3,500 -60 Level Fort Worth Center
09:51PM 32.2658 -97.1133 20° North 182 209 3,400 -60 Descending Fort Worth Center
09:52PM 32.3136 -97.0914 21° North 181 208 3,400  Level Fort Worth Center
09:53PM 32.3631 -97.0783 13° North 181 208 3,400  Level Fort Worth Center
09:54PM 32.4142 -97.0572 19° North 181 208 3,400  Level Fort Worth Center
09:56PM 32.4603 -97.0356 22° Northeast 180 207 3,400  Level Fort Worth Center
09:57PM 32.5103 -97.0206 14° North 182 209 3,400  Level Fort Worth Center
09:58PM 32.5622 -97.0014 17° North 183 211 3,400  Level Fort Worth Center
09:59PM 32.6083 -96.9758 25° Northeast 183 211 3,400  Level Fort Worth Center
10:00PM 32.6572 -96.9636 12° North 183 211 3,400 -360 Level Fort Worth Center
10:01PM 32.7114 -96.9406 20° North 188 216 2,700 -540 Descending Fort Worth Center
10:02PM 32.7578 -96.9094 29° Northeast 190 219 2,400 -180 Descending Fort Worth Center
10:03PM 32.7969 -96.8817 31° Northeast 184 212 2,400  Level Fort Worth Center
10:04PM 32.8469 -96.8536 25° Northeast 176 203 2,400 -180 Level Fort Worth Center
10:05PM 32.8944 -96.8333 20° North 178 205 2,100 -300 Descending Fort Worth Center
10:06PM 32.9436 -96.8492 345° North 181 208 1,800 -120 Descending Fort Worth Center
10:07PM 32.9800 -96.8839 321° Northwest 156 180 1,900  Climbing Fort Worth Center
10:08PM 33.0144 -96.9092 328° Northwest 149 171 1,900  Level Fort Worth Center
10:09PM 33.0514 -96.9167 350° North 148 170 2,000  Climbing Fort Worth Center
10:10PM 33.0603 -96.8806 74° East 120 138 1,900 -300 Descending Fort Worth Center
10:11PM 33.0294 -96.8617 153° Southeast 111 128 1,400 -420 Descending Fort Worth Center
10:12PM 33.0019 -96.8506 161° South 109 125 1,100 -360 Descending Fort Worth Center
10:13PM 32.9781 -96.8406 161° South 93 107 700 -420 Descending Fort Worth Center
10:15PM 32.9667 -96.8333 121° Southeast  Level FlightAware Approximate
10:22PM 32.9686 -96.8364 121° Southeast  Level Estimated
10:23PM 32.9686 -96.8364 301° West  Level Estimated
10:24PM 32.9686 -96.8364 121° Southeast  Level Estimated
10:25PM 32.9686 -96.8364 126° Southeast  Level Estimated
10:26PM 32.9667 -96.8333 121° Southeast  Level FlightAware Approximate